createdAt,value
2022-09-05T00:04:24.961Z,17.57
2022-09-05T00:09:40.077Z,17.54
2022-09-05T00:15:18.450Z,17.45
2022-09-05T00:24:32.906Z,17.41
2022-09-05T00:26:14.792Z,17.35
2022-09-05T00:31:55.941Z,17.41
2022-09-05T00:37:18.255Z,17.27
2022-09-05T00:42:49.491Z,17.22
2022-09-05T00:48:20.857Z,17.10
2022-09-05T00:53:52.492Z,17.02
2022-09-05T00:59:23.852Z,16.89
2022-09-05T01:04:55.707Z,16.82
2022-09-05T01:10:27.313Z,16.72
2022-09-05T01:15:58.725Z,16.74
2022-09-05T01:21:30.042Z,16.67
2022-09-05T01:27:01.670Z,16.61
2022-09-05T01:32:33.175Z,16.55
2022-09-05T01:38:04.740Z,16.51
2022-09-05T01:43:36.082Z,16.43
2022-09-05T01:49:07.825Z,16.40
2022-09-05T01:54:39.539Z,16.37
2022-09-05T02:00:10.837Z,16.34
2022-09-05T02:11:13.726Z,16.27
2022-09-05T02:16:45.303Z,16.21
2022-09-05T02:22:16.933Z,16.20
2022-09-05T02:28:04.246Z,16.16
2022-09-05T02:42:22.554Z,16.06
2022-09-05T02:45:11.754Z,16.06
2022-09-05T02:57:33.580Z,15.97
2022-09-05T03:00:58.844Z,15.97
2022-09-05T03:06:34.655Z,15.95
2022-09-05T03:12:27.120Z,15.95
2022-09-05T03:23:05.492Z,15.86
2022-09-05T03:28:37.060Z,15.82
2022-09-05T03:34:08.340Z,15.81
2022-09-05T03:39:39.968Z,15.76
2022-09-05T03:57:05.817Z,15.75
2022-09-05T03:57:23.407Z,15.71
2022-09-05T04:05:51.620Z,15.68
2022-09-05T04:08:24.666Z,15.65
2022-09-05T04:12:49.358Z,15.62
2022-09-05T04:23:53.075Z,15.64
2022-09-05T04:29:24.781Z,15.64
2022-09-05T04:34:56.256Z,15.61
2022-09-05T04:40:32.243Z,15.58
2022-09-05T04:45:59.687Z,15.53
2022-09-05T04:51:31.879Z,15.51
2022-09-05T04:57:14.076Z,15.53
2022-09-05T05:06:19.104Z,15.71
2022-09-05T05:08:07.055Z,16.74
2022-09-05T05:18:02.533Z,17.35
2022-09-05T05:30:14.195Z,20.68
2022-09-05T05:35:48.541Z,21.36
2022-09-05T05:41:19.899Z,22.76
2022-09-05T05:46:51.425Z,23.48
2022-09-05T05:52:25.470Z,24.92
2022-09-05T05:57:57.241Z,25.61
2022-09-05T06:03:29.682Z,26.91
2022-09-05T06:13:06.292Z,27.43
2022-09-05T06:21:58.273Z,28.26
2022-09-05T06:25:36.572Z,28.05
2022-09-05T06:31:29.286Z,27.95
2022-09-05T06:36:40.176Z,28.19
2022-09-05T06:47:43.663Z,28.91
2022-09-05T06:58:44.783Z,27.71
2022-09-05T07:05:05.224Z,27.37
2022-09-05T07:09:48.379Z,26.68
2022-09-05T07:15:20.612Z,26.47
2022-09-05T07:21:16.553Z,26.43
2022-09-05T07:26:51.383Z,26.65
2022-09-05T07:31:55.432Z,27.33
2022-09-05T07:37:27.297Z,27.86
2022-09-05T07:43:09.123Z,29.30
2022-09-05T07:48:34.813Z,29.89
2022-09-05T07:57:08.679Z,30.29
2022-09-05T07:59:33.952Z,30.77
2022-09-05T08:05:06.206Z,31.71
2022-09-05T08:07:47.772Z,0.00
2022-09-05T08:13:24.577Z,31.94
2022-09-05T08:18:21.377Z,31.91
2022-09-05T08:23:52.915Z,31.66
2022-09-05T08:29:24.578Z,31.44
2022-09-05T08:34:55.843Z,31.81
2022-09-05T08:40:27.424Z,32.08
2022-09-05T08:46:40.699Z,32.30
2022-09-05T08:51:31.388Z,32.28
2022-09-05T08:57:03.179Z,32.53
2022-09-05T09:02:46.936Z,32.63
2022-09-05T09:08:06.715Z,33.04
2022-09-05T09:13:38.330Z,32.77
2022-09-05T09:19:09.628Z,32.30
2022-09-05T09:24:41.726Z,32.05
2022-09-05T09:30:13.415Z,30.98
2022-09-05T09:41:16.855Z,29.77
2022-09-05T09:46:48.707Z,29.41
2022-09-05T09:52:20.834Z,28.92
2022-09-05T09:57:51.843Z,28.84
2022-09-05T10:07:36.789Z,28.55
2022-09-05T10:10:48.843Z,28.47
2022-09-05T10:14:49.065Z,28.36
2022-09-05T10:20:09.095Z,28.32
2022-09-05T10:32:56.025Z,28.26
2022-09-05T10:36:40.146Z,28.27
2022-09-05T10:42:12.055Z,28.23
2022-09-05T10:47:43.994Z,28.27
2022-09-05T10:53:15.725Z,28.20
2022-09-05T11:00:58.064Z,28.29
2022-09-05T11:04:18.882Z,28.29
2022-09-05T11:09:56.058Z,28.30
2022-09-05T11:15:24.217Z,28.30
2022-09-05T11:20:55.825Z,28.61
2022-09-05T11:34:07.372Z,28.74
2022-09-05T11:39:52.514Z,28.70
2022-09-05T11:43:00.839Z,28.64
2022-09-05T11:48:32.991Z,28.68
2022-09-05T11:54:05.012Z,28.61
2022-09-05T11:59:36.925Z,28.51
2022-09-05T12:05:48.447Z,28.74
2022-09-05T12:10:47.031Z,28.85
2022-09-05T12:16:12.027Z,28.98
2022-09-05T12:21:43.675Z,28.98
2022-09-05T12:27:42.935Z,28.95
2022-09-05T12:36:01.502Z,28.99
2022-09-05T12:40:56.188Z,28.92
2022-09-05T12:44:38.063Z,28.89
2022-09-05T12:49:23.297Z,28.88
2022-09-05T12:54:57.078Z,28.94
2022-09-05T13:03:04.284Z,29.12
2022-09-05T13:05:58.789Z,29.22
2022-09-05T13:15:02.696Z,29.33
2022-09-05T13:17:02.236Z,29.34
2022-09-05T13:22:34.061Z,29.53
2022-09-05T13:44:34.618Z,29.72
2022-09-05T13:55:36.112Z,29.81
2022-09-05T14:11:18.131Z,30.46
2022-09-05T14:16:53.651Z,30.50
2022-09-05T14:27:51.239Z,30.44
2022-09-05T14:37:36.030Z,30.54
2022-09-05T14:38:54.901Z,30.58
2022-09-05T14:44:27.660Z,30.54
2022-09-05T14:49:59.700Z,30.51
2022-09-05T14:55:31.440Z,30.40
2022-09-05T15:02:44.407Z,30.33
2022-09-05T15:06:35.078Z,30.22
2022-09-05T15:12:22.172Z,30.19
2022-09-05T15:17:38.627Z,30.19
2022-09-05T15:23:16.156Z,30.18
2022-09-05T15:28:42.249Z,30.03
2022-09-05T15:39:43.466Z,29.65
2022-09-05T15:45:15.227Z,29.65
2022-09-05T15:50:47.051Z,29.53
2022-09-05T15:56:18.992Z,29.47
2022-09-05T16:10:48.806Z,29.30
2022-09-05T16:23:12.789Z,29.14
2022-09-05T16:26:25.506Z,28.86
2022-09-05T16:31:51.893Z,28.79
2022-09-05T16:37:23.588Z,28.57
2022-09-05T16:42:55.511Z,28.48
2022-09-05T16:59:30.866Z,28.09
2022-09-05T17:05:05.395Z,28.01
2022-09-05T17:10:34.263Z,27.79
2022-09-05T17:16:05.944Z,27.67
2022-09-05T17:22:32.284Z,27.43
2022-09-05T17:29:50.493Z,27.30
2022-09-05T17:38:14.497Z,26.94
2022-09-05T17:43:46.532Z,26.69
2022-09-05T17:49:20.476Z,26.57
2022-09-05T17:54:50.545Z,26.34
2022-09-05T18:24:42.724Z,25.33
2022-09-05T18:30:14.327Z,25.26
2022-09-05T18:35:50.718Z,25.06
2022-09-05T18:41:19.499Z,24.95
2022-09-05T18:46:51.739Z,24.77
2022-09-05T18:52:24.143Z,24.68
2022-09-05T18:57:58.893Z,24.51
2022-09-05T19:03:28.016Z,24.44
2022-09-05T19:08:59.804Z,24.30
2022-09-05T19:14:31.659Z,24.21
2022-09-05T19:20:12.587Z,24.07
2022-09-05T19:25:35.190Z,23.99
2022-09-05T19:36:47.008Z,23.86
2022-09-05T19:37:04.777Z,23.82
2022-09-05T19:47:30.003Z,23.69
2022-09-05T19:53:13.686Z,23.50
2022-09-05T19:58:45.284Z,23.44
2022-09-05T20:04:17.252Z,23.33
2022-09-05T20:09:48.913Z,23.27
2022-09-05T20:15:20.694Z,23.12
2022-09-05T20:20:52.339Z,23.02
2022-09-05T20:26:24.243Z,22.83
2022-09-05T20:31:56.042Z,22.76
2022-09-05T20:43:08.580Z,22.54
2022-09-05T20:43:26.811Z,22.45
2022-09-05T20:59:32.081Z,22.14
2022-09-05T21:05:06.922Z,22.03
2022-09-05T21:10:33.726Z,21.97
2022-09-05T21:16:05.725Z,21.86
2022-09-05T21:21:37.382Z,21.83
2022-09-05T21:27:09.111Z,21.68
2022-09-05T21:32:41.482Z,21.65
2022-09-05T21:38:12.695Z,21.48
2022-09-05T21:47:38.963Z,21.44
2022-09-05T21:49:16.262Z,21.31
2022-09-05T21:59:17.233Z,21.24
2022-09-05T22:00:19.707Z,21.14
2022-09-05T22:05:51.512Z,21.09
2022-09-05T22:11:23.477Z,20.95
2022-09-05T22:16:55.343Z,20.86
2022-09-05T22:22:27.051Z,20.74
2022-09-05T22:27:58.924Z,20.69
2022-09-05T22:33:30.451Z,20.54
2022-09-05T22:39:02.599Z,20.47
2022-09-05T22:44:34.282Z,20.35
2022-09-05T22:50:06.172Z,20.30
2022-09-05T22:55:37.954Z,20.17
2022-09-05T23:01:09.447Z,20.13
2022-09-05T23:06:41.381Z,20.02
2022-09-05T23:12:13.346Z,19.97
2022-09-05T23:17:45.556Z,19.87
2022-09-05T23:23:17.263Z,19.80
2022-09-05T23:28:49.102Z,19.73
2022-09-05T23:34:20.775Z,19.66
2022-09-05T23:39:52.590Z,19.59
2022-09-05T23:50:54.221Z,19.40
2022-09-05T23:56:26.229Z,19.33
